Time;durP1;ratioP1;P1;durP2;ratioP2;P2;SDS_P1;SDS_P2;PMS_P1;PMS_P2;Temp;Humidity;BMP_temperature;BMP_pressure;BME280_temperature;BME280_humidity;BME280_pressure;Samples;Min_cycle;Max_cycle;Signal;HPM_P1;HPM_P2
2023/03/28 00:01:00;;;;;;;4.43;1.40;;;;;;;18.33;41.89;102604.22;5067616;28;20370;-74
2023/03/28 00:03:27;;;;;;;4.05;1.40;;;;;;;18.30;41.68;102599.94;5067704;28;20040;-73
2023/03/28 00:05:59;;;;;;;4.63;1.20;;;;;;;18.28;41.85;102600.97;5064882;28;20028;-73
2023/03/28 00:08:24;;;;;;;3.70;1.40;;;;;;;18.27;41.63;102608.03;5057956;28;20091;-74
2023/03/28 00:10:50;;;;;;;5.90;1.45;;;;;;;18.29;41.84;102608.81;5068144;28;20040;-73
2023/03/28 00:13:18;;;;;;;4.07;1.42;;;;;;;18.28;41.83;102600.97;5067952;28;20040;-74
2023/03/28 00:15:44;;;;;;;5.22;1.55;;;;;;;18.23;41.71;102601.22;5055160;28;20043;-75
2023/03/28 00:18:13;;;;;;;5.78;1.50;;;;;;;18.17;41.70;102595.44;5052839;28;20385;-74
2023/03/28 00:20:44;;;;;;;4.43;1.33;;;;;;;18.22;41.80;102596.03;5051568;28;20045;-75
2023/03/28 00:23:12;;;;;;;3.60;1.30;;;;;;;18.21;41.71;102597.81;5052516;28;20040;-76
2023/03/28 00:25:40;;;;;;;3.58;1.40;;;;;;;18.16;41.83;102589.28;5051571;28;20887;-76
2023/03/28 00:28:06;;;;;;;5.63;1.27;;;;;;;18.20;41.82;102598.75;5051988;28;20048;-74
2023/03/28 00:30:31;;;;;;;5.45;1.55;;;;;;;18.20;41.81;102595.25;5051715;28;20389;-77
2023/03/28 00:32:57;;;;;;;4.63;1.58;;;;;;;18.19;41.85;102601.47;5051757;28;20388;-75
2023/03/28 00:35:23;;;;;;;4.38;1.45;;;;;;;18.19;41.80;102601.47;5051708;28;20040;-75
2023/03/28 00:37:51;;;;;;;4.00;1.40;;;;;;;18.16;41.78;102593.72;5050569;28;20033;-75
2023/03/28 00:40:17;;;;;;;4.13;1.48;;;;;;;18.12;41.61;102596.53;5051959;28;20090;-73
2023/03/28 00:42:42;;;;;;;4.70;1.52;;;;;;;18.14;41.90;102593.81;5049653;28;20041;-75
2023/03/28 00:45:10;;;;;;;3.40;1.25;;;;;;;18.15;41.59;102597.28;5051211;28;20048;-75
2023/03/28 00:47:53;;;;;;;3.67;1.23;;;;;;;18.14;41.77;102599.09;5051315;28;20343;-75
2023/03/28 00:50:29;;;;;;;4.10;1.40;;;;;;;18.09;40.50;102596.69;5051757;28;20040;-75
2023/03/28 00:52:54;;;;;;;3.92;1.50;;;;;;;18.12;39.63;102606.25;5051105;28;20108;-75
2023/03/28 00:55:35;;;;;;;5.10;1.50;;;;;;;18.10;39.42;102608.09;5047985;28;20853;-76
2023/03/28 00:58:02;;;;;;;3.60;1.42;;;;;;;18.06;38.93;102602.13;5051984;28;20033;-75
2023/03/28 01:00:29;;;;;;;4.63;1.30;;;;;;;18.07;38.79;102603.84;5067024;28;20086;-75
2023/03/28 01:02:57;;;;;;;4.55;1.48;;;;;;;18.08;38.89;102604.69;5050502;28;20435;-75
2023/03/28 01:05:29;;;;;;;4.43;1.35;;;;;;;18.05;38.83;102605.69;5049363;28;20064;-75
2023/03/28 01:08:00;;;;;;;3.30;1.20;;;;;;;18.05;38.38;102604.84;5048202;28;20025;-75
2023/03/28 01:10:27;;;;;;;5.60;1.48;;;;;;;18.02;38.53;102595.28;5048781;28;20051;-76
2023/03/28 01:12:55;;;;;;;3.88;1.50;;;;;;;18.02;38.21;102594.44;5048978;28;20041;-75
2023/03/28 01:15:20;;;;;;;5.60;1.50;;;;;;;18.00;38.28;102593.69;5047780;28;20033;-74
2023/03/28 01:17:46;;;;;;;3.22;1.13;;;;;;;18.00;38.17;102594.53;5049011;28;20079;-75
2023/03/28 01:20:34;;;;;;;4.38;1.50;;;;;;;18.00;37.81;102593.69;5051119;28;20055;-76
2023/03/28 01:23:15;;;;;;;4.35;1.30;;;;;;;18.03;37.99;102594.38;5049605;28;20037;-76
2023/03/28 01:26:11;;;;;;;3.78;1.23;;;;;;;17.98;37.66;102579.75;5050024;28;20036;-75
2023/03/28 01:28:55;;;;;;;3.88;1.45;;;;;;;18.03;37.37;102590.88;5050516;28;20833;-76
2023/03/28 01:31:42;;;;;;;3.47;1.53;;;;;;;18.03;37.66;102585.63;5051548;28;20484;-76
2023/03/28 01:34:29;;;;;;;3.83;1.48;;;;;;;18.02;37.34;102589.19;5052137;28;20044;-75
2023/03/28 01:37:15;;;;;;;4.13;1.60;;;;;;;18.00;37.23;102589.25;5051117;28;20111;-76
2023/03/28 01:40:07;;;;;;;5.78;1.80;;;;;;;17.97;37.14;102580.66;5051118;28;20040;-75
2023/03/28 01:42:41;;;;;;;4.68;1.52;;;;;;;17.98;37.11;102580.59;5050294;28;20025;-74
2023/03/28 01:45:37;;;;;;;4.22;1.30;;;;;;;17.94;36.90;102582.53;5051477;28;20033;-75
2023/03/28 01:48:16;;;;;;;4.20;1.40;;;;;;;17.93;36.95;102566.78;5045762;28;20053;-76
2023/03/28 01:50:50;;;;;;;4.45;1.50;;;;;;;17.92;37.01;102565.91;5064426;28;20033;-75
2023/03/28 01:53:29;;;;;;;4.40;1.35;;;;;;;17.97;36.97;102578.03;5047821;28;20995;-75
2023/03/28 01:56:06;;;;;;;4.47;1.40;;;;;;;17.94;36.85;102576.38;5049366;28;20428;-75
2023/03/28 01:58:37;;;;;;;4.05;1.40;;;;;;;17.95;36.84;102576.31;5049914;28;20025;-74
2023/03/28 02:01:07;;;;;;;4.07;1.40;;;;;;;17.92;36.70;102573.84;5049333;28;20067;-73
2023/03/28 02:03:40;;;;;;;3.80;1.38;;;;;;;17.91;36.48;102573.91;5050118;28;20090;-74
2023/03/28 02:06:08;;;;;;;3.90;1.48;;;;;;;17.92;36.36;102578.25;5051568;28;20461;-75
2023/03/28 02:08:36;;;;;;;5.55;1.40;;;;;;;17.86;36.06;102562.72;5049167;28;20470;-75
2023/03/28 02:11:02;;;;;;;4.50;1.40;;;;;;;17.92;36.30;102575.63;5053707;28;20029;-74
2023/03/28 02:13:40;;;;;;;4.15;1.55;;;;;;;17.91;36.26;102580.06;5054073;28;20567;-75
2023/03/28 02:16:09;;;;;;;5.57;1.60;;;;;;;17.87;36.11;102575.00;5053703;28;20041;-74
2023/03/28 02:18:38;;;;;;;4.25;1.42;;;;;;;17.84;36.23;102569.88;5054044;28;20033;-76
2023/03/28 02:21:07;;;;;;;6.63;1.38;;;;;;;17.83;36.07;102565.53;5053451;28;20489;-75
2023/03/28 02:23:39;;;;;;;4.18;1.30;;;;;;;17.84;35.80;102565.44;5053958;28;20050;-76
2023/03/28 02:26:05;;;;;;;3.78;1.40;;;;;;;17.88;36.21;102576.72;5052473;28;20037;-76
2023/03/28 02:28:32;;;;;;;4.15;1.70;;;;;;;17.88;36.04;102569.66;5051333;28;20033;-75
2023/03/28 02:31:00;;;;;;;4.15;1.70;;;;;;;17.81;35.67;102557.69;5052793;28;20466;-76
2023/03/28 02:33:43;;;;;;;4.82;1.40;;;;;;;17.82;35.69;102559.41;5048462;28;20094;-75
2023/03/28 02:36:32;;;;;;;4.22;1.50;;;;;;;17.86;35.64;102570.63;5052149;28;20481;-77
2023/03/28 02:39:36;;;;;;;3.90;1.50;;;;;;;17.88;35.77;102566.16;5067243;28;20044;-76
2023/03/28 02:42:33;;;;;;;4.25;1.58;;;;;;;17.85;35.38;102567.16;5033550;28;20098;-76
2023/03/28 02:45:37;;;;;;;3.45;1.40;;;;;;;17.84;35.44;102570.72;5049064;28;20764;-74
2023/03/28 02:48:15;;;;;;;5.82;1.83;;;;;;;17.82;35.65;102561.22;5050328;28;20025;-75
2023/03/28 02:50:48;;;;;;;5.85;1.65;;;;;;;17.82;35.56;102561.22;5050437;28;20042;-74
2023/03/28 02:53:36;;;;;;;4.18;1.70;;;;;;;17.80;35.46;102558.66;5048674;28;20047;-76
2023/03/28 02:56:05;;;;;;;4.82;1.70;;;;;;;17.80;35.68;102560.41;5049376;28;20259;-75
2023/03/28 02:58:39;;;;;;;4.93;1.63;;;;;;;17.77;35.41;102558.81;5052264;28;20033;-75
2023/03/28 03:01:05;;;;;;;5.55;1.70;;;;;;;17.75;35.56;102550.97;5049883;28;20037;-75
2023/03/28 03:03:35;;;;;;;3.75;1.58;;;;;;;17.80;35.47;102563.06;5050245;28;20056;-76
2023/03/28 03:06:04;;;;;;;4.15;1.70;;;;;;;17.74;35.32;102559.81;5050794;28;20405;-76
2023/03/28 03:08:30;;;;;;;4.30;1.63;;;;;;;17.73;35.28;102551.97;5050252;28;20037;-75
2023/03/28 03:10:56;;;;;;;4.20;1.70;;;;;;;17.75;36.85;102556.25;5049326;28;20114;-75
2023/03/28 03:13:22;;;;;;;4.72;1.85;;;;;;;17.75;37.57;102564.16;5050719;28;20033;-76
2023/03/28 03:15:47;;;;;;;5.18;2.03;;;;;;;17.75;37.56;102558.88;5051847;28;20169;-73
2023/03/28 03:18:12;;;;;;;4.78;1.63;;;;;;;17.76;38.17;102563.22;5044831;28;20497;-75
2023/03/28 03:20:40;;;;;;;5.20;1.58;;;;;;;17.76;38.06;102559.72;5055237;28;20049;-74
2023/03/28 03:23:06;;;;;;;4.00;1.80;;;;;;;17.74;38.20;102558.97;5051400;28;20112;-75
2023/03/28 03:25:32;;;;;;;6.45;2.10;;;;;;;17.69;38.28;102553.06;5050608;28;20024;-75
2023/03/28 03:27:58;;;;;;;6.78;2.40;;;;;;;17.70;38.56;102552.13;5050776;28;20493;-73
2023/03/28 03:30:23;;;;;;;4.60;1.65;;;;;;;17.71;38.67;102562.59;5057630;28;20037;-74
2023/03/28 03:32:48;;;;;;;5.15;1.70;;;;;;;17.71;38.93;102561.75;5045699;28;20032;-74
2023/03/28 03:35:14;;;;;;;6.10;1.92;;;;;;;17.71;38.92;102565.25;5052451;28;20148;-74
2023/03/28 03:37:40;;;;;;;4.82;1.95;;;;;;;17.68;39.12;102565.41;5051520;28;20034;-74
2023/03/28 03:40:07;;;;;;;4.05;1.80;;;;;;;17.69;38.93;102575.03;5062411;28;20041;-73
2023/03/28 03:42:32;;;;;;;4.07;1.90;;;;;;;17.65;39.23;102560.28;5067932;28;20032;-73
2023/03/28 03:44:57;;;;;;;6.50;2.00;;;;;;;17.66;39.34;102569.06;5067069;28;20436;-74
2023/03/28 03:47:23;;;;;;;5.15;1.80;;;;;;;17.64;39.16;102563.00;5066552;28;20090;-73
2023/03/28 03:49:48;;;;;;;5.20;2.10;;;;;;;17.63;39.45;102562.16;5067040;28;20036;-73
2023/03/28 03:52:13;;;;;;;4.35;1.80;;;;;;;17.64;39.42;102566.50;5065299;28;20036;-73
2023/03/28 03:54:39;;;;;;;5.57;2.55;;;;;;;17.64;39.57;102565.63;5083257;28;20468;-74
2023/03/28 03:57:04;;;;;;;6.50;2.03;;;;;;;17.63;39.37;102561.31;5067433;28;20068;-73
2023/03/28 03:59:30;;;;;;;4.40;2.05;;;;;;;17.62;39.50;102557.81;5060415;28;20032;-75
2023/03/28 04:01:56;;;;;;;5.05;2.00;;;;;;;17.63;39.63;102556.03;5053301;28;20040;-75
2023/03/28 04:04:21;;;;;;;5.13;2.25;;;;;;;17.62;39.46;102563.06;5051772;28;20043;-74
2023/03/28 04:06:47;;;;;;;5.85;1.90;;;;;;;17.62;39.56;102560.44;5068531;28;20029;-75
2023/03/28 04:09:12;;;;;;;4.00;2.22;;;;;;;17.64;39.78;102568.28;5052522;28;20037;-74
2023/03/28 04:11:37;;;;;;;5.05;2.28;;;;;;;17.63;39.89;102558.69;5053355;28;20039;-74
2023/03/28 04:14:03;;;;;;;5.43;2.85;;;;;;;17.61;39.95;102563.16;5043436;28;20044;-76
2023/03/28 04:16:28;;;;;;;13.10;5.70;;;;;;;17.63;40.03;102563.94;5053047;28;20584;-74
2023/03/28 04:18:54;;;;;;;6.18;2.40;;;;;;;17.58;39.79;102556.28;5052304;28;20025;-74
2023/03/28 04:21:26;;;;;;;4.85;2.22;;;;;;;17.58;40.13;102559.75;5052194;28;20056;-73
2023/03/28 04:23:51;;;;;;;6.43;2.30;;;;;;;17.58;40.43;102559.75;5052182;28;20541;-76
2023/03/28 04:26:24;;;;;;;6.25;2.13;;;;;;;17.55;40.20;102552.00;5052493;28;20043;-74
2023/03/28 04:28:51;;;;;;;5.03;2.40;;;;;;;17.58;40.04;102561.56;5041859;28;20056;-77
2023/03/28 04:31:17;;;;;;;5.38;2.50;;;;;;;17.52;40.49;102548.69;5051662;28;20039;-75
2023/03/28 04:33:44;;;;;;;4.40;2.00;;;;;;;17.55;40.76;102552.00;5051184;28;20033;-75
2023/03/28 04:36:10;;;;;;;4.47;2.00;;;;;;;17.52;41.00;102541.63;5041578;28;20036;-74
2023/03/28 04:38:35;;;;;;;4.80;1.80;;;;;;;17.55;40.46;102552.00;5051266;28;20537;-75
2023/03/28 04:41:03;;;;;;;6.32;2.30;;;;;;;17.59;40.15;102552.69;5051728;28;20033;-75
2023/03/28 04:43:30;;;;;;;4.82;2.15;;;;;;;17.60;40.12;102546.50;5052477;28;20040;-75
2023/03/28 04:45:56;;;;;;;5.80;2.70;;;;;;;17.67;39.79;102553.13;5052179;28;20060;-74
2023/03/28 04:48:23;;;;;;;4.75;1.70;;;;;;;17.72;39.82;102552.91;5051221;28;20060;-74
2023/03/28 04:50:48;;;;;;;3.83;1.60;;;;;;;17.75;40.05;102547.47;5051280;28;20037;-74
2023/03/28 04:53:14;;;;;;;3.45;1.65;;;;;;;17.81;39.89;102549.78;5051268;28;20027;-74
2023/03/28 04:55:42;;;;;;;4.15;1.60;;;;;;;17.86;39.97;102550.38;5051559;28;20029;-74
2023/03/28 04:58:09;;;;;;;4.50;1.80;;;;;;;17.90;39.91;102551.13;5051864;28;20120;-74
2023/03/28 05:00:35;;;;;;;3.85;1.50;;;;;;;17.93;39.67;102553.59;5050444;28;20468;-76
2023/03/28 05:03:03;;;;;;;4.75;1.70;;;;;;;17.95;39.86;102549.94;5051141;28;20029;-75
2023/03/28 05:05:30;;;;;;;5.30;1.55;;;;;;;17.98;39.70;102556.00;5050831;28;20024;-74
2023/03/28 05:07:56;;;;;;;3.70;1.60;;;;;;;18.00;39.73;102560.25;5050904;28;20029;-76
2023/03/28 05:10:21;;;;;;;3.65;1.42;;;;;;;18.04;39.74;102566.19;5041082;28;20037;-73
2023/03/28 05:12:47;;;;;;;4.05;2.38;;;;;;;18.06;39.75;102561.72;5050560;28;20400;-74
2023/03/28 05:15:12;;;;;;;4.70;1.70;;;;;;;18.05;39.96;102563.47;5051178;28;20043;-75
2023/03/28 05:17:39;;;;;;;4.70;1.92;;;;;;;18.09;39.69;102561.53;5050659;28;20528;-76
2023/03/28 05:20:08;;;;;;;5.05;1.85;;;;;;;18.10;39.82;102561.47;5051047;28;20193;-73
2023/03/28 05:22:35;;;;;;;4.68;1.83;;;;;;;18.13;39.70;102565.69;5048831;28;20472;-74
2023/03/28 05:25:00;;;;;;;3.72;1.70;;;;;;;18.12;39.75;102566.66;5050837;28;20053;-76
2023/03/28 05:27:26;;;;;;;5.07;1.90;;;;;;;18.15;39.82;102571.78;5050619;28;20071;-74
2023/03/28 05:29:51;;;;;;;4.63;2.00;;;;;;;18.15;39.88;102577.03;5051840;28;20041;-75
2023/03/28 05:32:16;;;;;;;4.15;1.80;;;;;;;18.14;39.92;102572.69;5050738;28;20037;-74
2023/03/28 05:34:42;;;;;;;6.22;2.10;;;;;;;18.17;39.76;102579.59;5050304;28;20051;-75
2023/03/28 05:37:07;;;;;;;4.90;1.80;;;;;;;18.19;40.01;102569.81;5050308;28;20044;-75
2023/03/28 05:39:35;;;;;;;4.80;1.60;;;;;;;18.18;40.05;102576.84;5050046;28;20028;-74
2023/03/28 05:42:00;;;;;;;4.80;1.50;;;;;;;18.19;39.89;102583.00;5050544;28;20513;-75
2023/03/28 05:44:26;;;;;;;6.07;1.98;;;;;;;18.19;39.74;102583.84;5050653;28;20033;-74
2023/03/28 05:46:51;;;;;;;5.25;1.98;;;;;;;18.18;39.62;102573.38;5054168;28;20036;-75
2023/03/28 05:49:16;;;;;;;5.07;1.85;;;;;;;18.19;39.98;102580.38;5053804;28;20139;-74
2023/03/28 05:51:42;;;;;;;5.50;1.98;;;;;;;18.19;39.76;102585.63;5046773;28;20174;-75
2023/03/28 05:54:07;;;;;;;4.10;1.63;;;;;;;18.23;39.96;102588.03;5054396;28;20383;-73
2023/03/28 05:56:34;;;;;;;5.18;1.80;;;;;;;18.24;40.09;102586.25;5054559;28;20086;-73
2023/03/28 05:59:00;;;;;;;4.53;1.80;;;;;;;18.25;39.96;102583.50;5067966;28;20052;-74
2023/03/28 06:01:27;;;;;;;3.90;1.65;;;;;;;18.24;39.82;102571.25;5054126;28;20032;-73
2023/03/28 06:03:53;;;;;;;6.00;1.80;;;;;;;18.23;40.00;102569.56;5052511;28;20029;-73
2023/03/28 06:06:19;;;;;;;4.72;1.52;;;;;;;18.29;39.90;102569.22;5047436;28;20035;-74
2023/03/28 06:08:44;;;;;;;5.13;2.20;;;;;;;18.30;39.99;102567.44;5051797;28;20037;-75
2023/03/28 06:11:10;;;;;;;4.93;2.05;;;;;;;18.30;39.95;102564.78;5054481;28;20037;-73
2023/03/28 06:13:35;;;;;;;4.15;1.80;;;;;;;18.30;39.82;102564.78;5053977;28;20029;-75
2023/03/28 06:16:01;;;;;;;4.38;1.75;;;;;;;18.29;39.93;102571.00;5053990;28;20067;-74
2023/03/28 06:18:26;;;;;;;4.53;1.60;;;;;;;18.27;39.92;102568.44;5044316;28;20488;-72
2023/03/28 06:20:52;;;;;;;4.35;1.90;;;;;;;18.33;39.68;102571.69;5054018;28;20089;-74
2023/03/28 06:23:17;;;;;;;9.43;4.18;;;;;;;18.31;39.48;102570.00;5053209;28;20241;-75
2023/03/28 06:25:42;;;;;;;5.57;2.20;;;;;;;18.30;39.65;102564.78;5052183;28;20040;-76
2023/03/28 06:28:08;;;;;;;4.22;2.00;;;;;;;18.33;39.87;102583.09;5054191;28;20489;-76
2023/03/28 06:30:34;;;;;;;4.50;2.20;;;;;;;18.33;40.03;102587.53;5052754;28;20029;-76
2023/03/28 06:32:59;;;;;;;6.18;2.55;;;;;;;18.32;40.18;102584.03;5050168;28;20094;-75
2023/03/28 06:35:24;;;;;;;5.63;2.22;;;;;;;18.31;40.21;102588.47;5053764;28;20407;-74
2023/03/28 06:37:50;;;;;;;8.10;2.80;;;;;;;18.31;40.18;102588.47;5053421;28;20109;-75
2023/03/28 06:40:15;;;;;;;10.57;2.10;;;;;;;18.31;40.16;102588.47;5054332;28;20404;-77
2023/03/28 06:42:42;;;;;;;5.28;2.22;;;;;;;18.29;40.61;102582.44;5052216;28;20605;-76
2023/03/28 06:45:08;;;;;;;5.40;2.33;;;;;;;18.33;40.87;102588.38;5053037;28;20071;-77
2023/03/28 06:47:34;;;;;;;6.75;2.53;;;;;;;18.35;40.79;102589.13;5051532;28;20044;-71
2023/03/28 06:49:59;;;;;;;6.90;2.65;;;;;;;18.45;41.11;102586.84;5051773;28;20098;-70
2023/03/28 06:52:25;;;;;;;5.20;2.45;;;;;;;18.53;40.77;102589.06;5052527;28;20041;-69
2023/03/28 06:54:50;;;;;;;6.03;2.47;;;;;;;18.57;40.94;102586.16;5052567;28;20254;-73
2023/03/28 06:57:15;;;;;;;6.75;3.03;;;;;;;18.58;40.78;102587.88;5053247;28;20060;-73
2023/03/28 06:59:41;;;;;;;5.53;2.70;;;;;;;18.62;40.87;102591.19;5052294;28;20033;-68
2023/03/28 07:02:09;;;;;;;5.95;2.80;;;;;;;18.63;41.00;102582.34;5052308;28;20040;-68
2023/03/28 07:04:35;;;;;;;7.85;2.78;;;;;;;18.64;41.25;102591.97;5052742;28;20044;-68
2023/03/28 07:07:00;;;;;;;6.50;2.67;;;;;;;18.65;41.09;102588.38;5052802;28;20036;-70
2023/03/28 07:09:26;;;;;;;7.70;2.90;;;;;;;18.65;41.15;102591.88;5052618;28;20370;-71
2023/03/28 07:11:51;;;;;;;6.53;2.70;;;;;;;18.74;41.26;102598.44;5052849;28;20042;-72
2023/03/28 07:14:17;;;;;;;11.07;3.42;;;;;;;18.74;40.83;102592.28;5052339;28;20473;-72
2023/03/28 07:16:42;;;;;;;8.73;3.03;;;;;;;18.76;41.16;102601.00;5051790;28;20040;-75
2023/03/28 07:19:08;;;;;;;9.38;2.88;;;;;;;18.78;41.35;102594.66;5051355;28;20043;-73
2023/03/28 07:21:33;;;;;;;7.78;3.15;;;;;;;18.82;41.32;102596.22;5051652;28;20032;-72
2023/03/28 07:23:58;;;;;;;7.68;2.53;;;;;;;18.83;41.06;102604.97;5052846;28;20071;-73
2023/03/28 07:26:26;;;;;;;6.47;2.60;;;;;;;18.71;41.11;102595.97;5050937;28;20039;-71
2023/03/28 07:28:53;;;;;;;5.85;2.30;;;;;;;18.79;41.04;102601.66;5051168;28;20036;-75
2023/03/28 07:31:19;;;;;;;6.38;2.67;;;;;;;18.77;41.22;102600.91;5052146;28;20045;-72
2023/03/28 07:33:47;;;;;;;6.03;2.50;;;;;;;18.84;41.01;102604.94;5050099;28;20029;-72
2023/03/28 07:36:15;;;;;;;5.80;2.60;;;;;;;18.81;40.57;102605.06;5052962;28;20061;-71
2023/03/28 07:38:40;;;;;;;5.53;2.22;;;;;;;18.83;40.79;102602.34;5052519;28;20381;-72
2023/03/28 07:41:06;;;;;;;5.90;2.40;;;;;;;18.82;41.00;102603.28;5052245;28;20555;-71
2023/03/28 07:43:32;;;;;;;6.97;2.42;;;;;;;18.80;40.91;102607.78;5052159;28;20435;-72
2023/03/28 07:46:02;;;;;;;6.72;2.50;;;;;;;18.79;41.12;102604.31;5053122;28;20027;-74
2023/03/28 07:48:28;;;;;;;6.47;2.40;;;;;;;18.74;41.02;102597.56;5052971;28;20032;-72
2023/03/28 07:50:53;;;;;;;6.15;2.55;;;;;;;18.76;41.31;102603.63;5052837;28;20033;-72
2023/03/28 07:53:19;;;;;;;6.72;2.25;;;;;;;18.77;41.36;102608.84;5052951;28;20028;-71
2023/03/28 07:55:44;;;;;;;6.88;2.00;;;;;;;18.75;41.46;102604.56;5045493;28;20378;-72
2023/03/28 07:58:10;;;;;;;6.03;1.90;;;;;;;18.74;41.22;102600.22;5052558;28;20064;-72
2023/03/28 08:00:35;;;;;;;5.47;2.10;;;;;;;18.73;41.57;102602.00;5052844;28;20025;-71
2023/03/28 08:03:00;;;;;;;6.88;2.20;;;;;;;18.73;41.44;102612.56;5043390;28;20032;-72
2023/03/28 08:05:26;;;;;;;5.88;2.20;;;;;;;18.70;41.32;102610.09;5053139;28;20957;-72
2023/03/28 08:07:52;;;;;;;4.95;2.00;;;;;;;18.73;41.46;102612.56;5051115;28;20072;-72
2023/03/28 08:10:18;;;;;;;5.18;2.22;;;;;;;18.69;41.52;102611.03;5052054;28;20061;-72
2023/03/28 08:12:43;;;;;;;4.68;1.95;;;;;;;18.71;41.45;102608.31;5053000;28;20090;-71
2023/03/28 08:15:09;;;;;;;6.15;2.00;;;;;;;18.68;41.55;102602.25;5053157;28;20098;-72
2023/03/28 08:17:34;;;;;;;3.78;1.73;;;;;;;18.70;41.65;102601.34;5052088;28;20024;-72
2023/03/28 08:20:00;;;;;;;5.30;2.08;;;;;;;18.67;41.53;102613.78;5049864;28;20903;-72
2023/03/28 08:22:25;;;;;;;7.65;2.20;;;;;;;18.62;41.73;102596.47;5052595;28;20040;-72
2023/03/28 08:24:51;;;;;;;5.70;1.85;;;;;;;18.66;41.69;102606.78;5051974;28;20025;-72
2023/03/28 08:27:16;;;;;;;6.15;2.10;;;;;;;18.72;41.62;102610.84;5044136;28;20037;-72
2023/03/28 08:29:42;;;;;;;5.78;1.80;;;;;;;18.70;41.82;102617.19;5051831;28;20060;-73
2023/03/28 08:32:07;;;;;;;4.30;1.67;;;;;;;18.70;41.76;102610.09;5042860;28;20043;-73
2023/03/28 08:34:32;;;;;;;5.22;1.70;;;;;;;18.70;42.04;102601.34;5051098;28;20098;-72
2023/03/28 08:36:58;;;;;;;5.72;2.15;;;;;;;18.70;41.86;102596.91;5051314;28;20029;-73
2023/03/28 08:39:24;;;;;;;4.05;1.40;;;;;;;18.69;41.63;102595.19;5051044;28;20106;-71
2023/03/28 08:42:04;;;;;;;6.03;1.80;;;;;;;18.71;41.89;102603.03;5052038;28;20033;-71
2023/03/28 08:44:56;;;;;;;5.30;1.70;;;;;;;18.66;42.04;102588.31;5051824;28;20029;-72
2023/03/28 08:47:28;;;;;;;4.22;1.73;;;;;;;18.69;41.81;102597.81;5051751;28;20033;-70
2023/03/28 08:50:08;;;;;;;5.60;1.88;;;;;;;18.71;41.75;102603.88;5052783;28;20071;-70
2023/03/28 08:52:34;;;;;;;6.07;1.60;;;;;;;18.72;41.80;102602.09;5051938;28;20089;-72
2023/03/28 08:55:05;;;;;;;5.18;1.70;;;;;;;18.69;41.89;102595.19;5051832;28;20372;-72
2023/03/28 08:57:33;;;;;;;5.82;1.65;;;;;;;18.69;41.77;102597.81;5051293;28;20078;-71
2023/03/28 09:00:23;;;;;;;4.80;1.80;;;;;;;18.63;41.91;102579.72;5052759;28;20384;-72
2023/03/28 09:02:48;;;;;;;5.97;1.52;;;;;;;18.71;42.02;102598.59;5052336;28;20036;-70
2023/03/28 09:05:27;;;;;;;3.80;1.52;;;;;;;18.61;42.05;102577.16;5051942;28;20028;-71
2023/03/28 09:08:05;;;;;;;6.10;1.77;;;;;;;18.68;42.08;102575.84;5051151;28;20037;-71
2023/03/28 09:10:42;;;;;;;4.95;1.67;;;;;;;18.61;42.28;102571.88;5051927;28;20039;-71
2023/03/28 09:13:19;;;;;;;5.32;2.13;;;;;;;18.67;42.08;102582.09;5052151;28;20126;-71
2023/03/28 09:16:01;;;;;;;5.18;1.65;;;;;;;18.73;42.09;102590.59;5050904;28;20047;-70
2023/03/28 09:18:47;;;;;;;4.88;1.60;;;;;;;18.67;42.05;102576.81;5051278;28;20118;-71
2023/03/28 09:21:22;;;;;;;5.82;1.35;;;;;;;18.72;42.02;102584.44;5053565;28;20127;-71
2023/03/28 09:24:05;;;;;;;5.72;1.80;;;;;;;18.73;42.16;102586.16;5055265;28;20072;-71
2023/03/28 09:26:38;;;;;;;5.15;1.45;;;;;;;18.73;41.93;102577.41;5055211;28;20119;-71
2023/03/28 09:29:10;;;;;;;6.10;1.83;;;;;;;18.74;42.08;102584.38;5055075;28;20094;-72
2023/03/28 09:31:47;;;;;;;4.03;1.50;;;;;;;18.70;41.99;102577.56;5055122;28;20024;-72
2023/03/28 09:34:41;;;;;;;5.28;1.25;;;;;;;18.73;42.02;102572.13;5055259;28;20477;-73
2023/03/28 09:37:31;;;;;;;4.23;1.37;;;;;;;18.73;41.86;102575.59;5054097;28;20052;-71
2023/03/28 09:40:06;;;;;;;4.15;1.30;;;;;;;18.70;42.01;102567.84;5055494;28;20039;-71
2023/03/28 09:42:52;;;;;;;3.88;1.20;;;;;;;18.71;41.92;102569.56;5056093;28;20035;-71
2023/03/28 09:45:49;;;;;;;3.00;1.30;;;;;;;18.73;41.93;102572.94;5053556;28;20033;-71
2023/03/28 09:48:22;;;;;;;3.35;1.30;;;;;;;18.72;41.74;102559.84;5054632;28;20035;-73
2023/03/28 09:50:48;;;;;;;4.15;1.20;;;;;;;18.75;42.01;102564.94;5055003;28;20040;-71
2023/03/28 09:53:24;;;;;;;5.45;1.42;;;;;;;18.75;41.92;102559.66;5054206;28;20024;-71
2023/03/28 09:55:51;;;;;;;4.32;1.40;;;;;;;18.75;40.19;102551.75;5053403;28;20044;-71
2023/03/28 09:58:17;;;;;;;4.93;1.30;;;;;;;18.70;40.71;102537.94;5054678;28;20032;-71
2023/03/28 10:00:51;;;;;;;4.25;1.52;;;;;;;18.68;40.76;102545.97;5054225;28;20412;-74
2023/03/28 10:03:29;;;;;;;3.90;1.73;;;;;;;18.65;40.99;102539.06;5070294;28;20100;-73
2023/03/28 10:06:24;;;;;;;2.45;1.08;;;;;;;18.68;41.43;102540.69;5052392;28;20029;-74
2023/03/28 10:08:49;;;;;;;3.80;1.30;;;;;;;18.68;41.35;102530.13;5069840;28;20525;-74
2023/03/28 10:11:17;;;;;;;2.92;1.20;;;;;;;18.68;41.32;102523.03;5054681;28;20047;-74
2023/03/28 10:13:48;;;;;;;4.50;1.20;;;;;;;18.68;41.12;102514.28;5061453;28;20032;-74
2023/03/28 10:16:23;;;;;;;5.70;1.15;;;;;;;18.70;41.27;102509.75;5052108;28;20067;-76
2023/03/28 10:18:49;;;;;;;3.63;1.23;;;;;;;18.75;41.54;102510.31;5052961;28;20119;-73
2023/03/28 10:21:17;;;;;;;3.13;1.20;;;;;;;18.77;41.39;102510.25;5052567;28;20183;-73
2023/03/28 10:24:00;;;;;;;5.07;1.33;;;;;;;18.80;41.53;102516.22;5052884;28;20438;-73
2023/03/28 10:26:27;;;;;;;4.90;1.40;;;;;;;18.89;41.39;102508.72;5053829;28;20036;-73
2023/03/28 10:28:57;;;;;;;4.43;1.25;;;;;;;18.89;41.36;102509.56;5053582;28;20044;-72
2023/03/28 10:31:27;;;;;;;4.88;1.23;;;;;;;18.87;41.40;102492.09;5052287;28;20473;-68
2023/03/28 10:33:54;;;;;;;5.82;1.40;;;;;;;18.95;41.56;102501.28;5052368;28;20056;-68
2023/03/28 10:36:27;;;;;;;6.22;1.30;;;;;;;18.94;41.90;102491.66;5053128;28;20076;-69
2023/03/28 10:38:54;;;;;;;3.75;1.13;;;;;;;19.01;41.75;102486.88;5052981;28;20029;-68
2023/03/28 10:41:25;;;;;;;5.63;1.45;;;;;;;19.06;41.76;102481.28;5053408;28;20037;-69
2023/03/28 10:43:50;;;;;;;4.75;1.33;;;;;;;19.09;41.75;102486.41;5053056;28;20033;-70
2023/03/28 10:46:20;;;;;;;4.45;1.10;;;;;;;19.10;41.93;102478.38;5053566;28;20036;-69
2023/03/28 10:48:55;;;;;;;4.55;1.05;;;;;;;19.07;41.81;102470.63;5053042;28;20012;-74
2023/03/28 10:51:23;;;;;;;6.28;1.40;;;;;;;19.12;41.32;102479.16;5053305;28;20024;-68
2023/03/28 10:54:15;;;;;;;3.65;1.20;;;;;;;19.09;41.80;102476.69;5052228;28;20024;-67
2023/03/28 10:56:53;;;;;;;5.30;1.17;;;;;;;19.14;41.98;102481.72;5052194;28;20044;-68
2023/03/28 10:59:46;;;;;;;3.03;1.00;;;;;;;19.11;41.75;102473.97;5053695;28;20032;-70
2023/03/28 11:02:40;;;;;;;4.53;1.20;;;;;;;19.13;42.19;102475.56;5053223;28;20503;-69
2023/03/28 11:05:36;;;;;;;4.00;1.10;;;;;;;19.13;42.49;102464.97;5052820;28;20033;-68
2023/03/28 11:08:30;;;;;;;4.68;1.17;;;;;;;19.14;42.45;102455.28;5052405;28;20036;-68
2023/03/28 11:11:08;;;;;;;7.15;2.10;;;;;;;19.17;41.75;102447.16;5064337;28;20123;-71
2023/03/28 11:14:27;;;;;;;5.07;1.23;;;;;;;19.21;42.16;102444.22;5054479;28;20042;-76
2023/03/28 11:17:20;;;;;;;4.63;1.30;;;;;;;19.19;41.97;102432.06;5018241;28;20498;-72
2023/03/28 11:20:06;;;;;;;3.70;1.20;;;;;;;19.20;41.69;102429.31;5052460;28;20048;-73
2023/03/28 11:22:59;;;;;;;4.53;1.42;;;;;;;19.18;41.92;102427.69;5051110;28;20079;-72
2023/03/28 11:26:18;;;;;;;3.53;1.10;;;;;;;19.18;42.46;102417.13;5051941;28;20887;-72
2023/03/28 11:28:44;;;;;;;4.22;1.17;;;;;;;19.13;42.67;102413.94;5020513;28;20033;-73
2023/03/28 11:31:21;;;;;;;6.03;1.40;;;;;;;19.05;42.59;102401.19;5044568;28;20120;-70
2023/03/28 11:33:52;;;;;;;6.35;1.60;;;;;;;19.15;42.64;102402.34;5051659;28;20828;-71
2023/03/28 11:36:40;;;;;;;4.60;1.30;;;;;;;19.18;42.31;102406.56;5053287;28;20560;-71
2023/03/28 11:39:16;;;;;;;3.60;1.23;;;;;;;19.21;42.17;102409.84;5053582;28;20174;-72
2023/03/28 11:41:45;;;;;;;4.18;1.05;;;;;;;19.22;42.03;102402.81;5053161;28;20118;-69